Time;durP1;ratioP1;P1;durP2;ratioP2;P2;SDS_P1;SDS_P2;PMS_P1;PMS_P2;Temp;Humidity;BMP_temperature;BMP_pressure;BME280_temperature;BME280_humidity;BME280_pressure;Samples;Min_cycle;Max_cycle;Signal;HPM_P1;HPM_P2
2021/07/17 00:02:08;;;;;;;;;;;;;;;;;;5040528;28;19931;-71
2021/07/17 00:04:34;;;;;;;;;;;;;;;;;;5039198;28;20064;-72
2021/07/17 00:07:01;;;;;;;;;;;;;;;;;;5040814;28;19925;-71
2021/07/17 00:09:28;;;;;;;;;;;;;;;;;;5042102;28;19929;-72
2021/07/17 00:11:55;;;;;;;;;;;;;;;;;;5045395;28;20296;-72
2021/07/17 00:14:22;;;;;;;;;;;;;;;;;;5044133;28;20266;-72
2021/07/17 00:16:49;;;;;;;;;;;;;;;;;;5036784;28;20024;-72
2021/07/17 00:19:17;;;;;;;;;;;;;;;;;;5049619;28;20485;-70
2021/07/17 00:21:44;;;;;;;;;;;;;;;;;;5047897;28;19931;-73
2021/07/17 00:24:11;;;;;;;;;;;;;;;;;;5047229;28;19956;-72
2021/07/17 00:26:38;;;;;;;;;;;;;;;;;;5046717;28;19925;-72
2021/07/17 00:29:05;;;;;;;;;;;;;;;;;;5048838;28;19929;-72
2021/07/17 00:31:32;;;;;;;;;;;;;;;;;;5044482;28;19933;-71
2021/07/17 00:33:59;;;;;;;;;;;;;;;;;;5052409;28;19963;-71
2021/07/17 00:36:26;;;;;;;;;;;;;;;;;;5050385;28;19947;-72
2021/07/17 00:38:53;;;;;;;;;;;;;;;;;;5048574;28;19925;-73
2021/07/17 00:41:20;;;;;;;;;;;;;;;;;;5051126;28;19925;-72
2021/07/17 00:43:47;;;;;;;;;;;;;;;;;;5040169;28;19924;-73
2021/07/17 00:46:14;;;;;;;;;;;;;;;;;;5041724;28;19960;-72
2021/07/17 00:48:41;;;;;;;;;;;;;;;;;;5046479;28;19939;-72
2021/07/17 00:51:08;;;;;;;;;;;;;;;;;;5050668;28;19925;-73
2021/07/17 00:53:35;;;;;;;;;;;;;;;;;;5043819;28;19944;-73
2021/07/17 00:56:02;;;;;;;;;;;;;;;;;;5049541;28;19931;-73
2021/07/17 00:58:29;;;;;;;;;;;;;;;;;;5044430;28;20035;-73
2021/07/17 01:00:56;;;;;;;;;;;;;;;;;;5050797;28;20435;-72
2021/07/17 01:03:23;;;;;;;;;;;;;;;;;;5039202;28;20452;-73
2021/07/17 01:05:50;;;;;;;;;;;;;;;;;;5051300;28;19925;-73
2021/07/17 01:08:17;;;;;;;;;;;;;;;;;;5049030;28;19983;-72
2021/07/17 01:10:44;;;;;;;;;;;;;;;;;;5047448;28;19924;-73
2021/07/17 01:13:11;;;;;;;;;;;;;;;;;;5047101;28;19928;-73
2021/07/17 01:15:37;;;;;;;;;;;;;;;;;;5042789;28;19925;-73
2021/07/17 01:18:04;;;;;;;;;;;;;;;;;;5043987;28;20027;-74
2021/07/17 01:20:31;;;;;;;;;;;;;;;;;;5043533;28;19929;-72
2021/07/17 01:22:58;;;;;;;;;;;;;;;;;;5048834;28;20016;-73
2021/07/17 01:25:25;;;;;;;;;;;;;;;;;;5051712;28;19989;-73
2021/07/17 01:27:52;;;;;;;;;;;;;;;;;;5042461;28;19972;-73
2021/07/17 01:30:19;;;;;;;;;;;;;;;;;;5044082;28;20020;-73
2021/07/17 01:32:46;;;;;;;;;;;;;;;;;;5043848;28;19932;-72
2021/07/17 01:35:13;;;;;;;;;;;;;;;;;;5044214;28;20028;-72
2021/07/17 01:37:40;;;;;;;;;;;;;;;;;;5046155;28;19976;-72
2021/07/17 01:40:07;;;;;;;;;;;;;;;;;;5042462;28;20031;-72
2021/07/17 01:42:35;;;;;;;;;;;;;;;;;;5039462;28;19925;-73
2021/07/17 01:45:02;;;;;;;;;;;;;;;;;;5046606;28;19932;-72
2021/07/17 01:47:28;;;;;;;;;;;;;;;;;;5048745;28;19932;-73
2021/07/17 01:49:55;;;;;;;;;;;;;;;;;;5049810;28;19932;-73
2021/07/17 01:52:22;;;;;;;;;;;;;;;;;;5043901;28;20016;-71
2021/07/17 01:54:49;;;;;;;;;;;;;;;;;;5045175;28;19924;-74
2021/07/17 01:57:16;;;;;;;;;;;;;;;;;;5044288;28;20002;-72
2021/07/17 01:59:45;;;;;;;;;;;;;;;;;;5044599;28;19968;-72
2021/07/17 02:02:12;;;;;;;;;;;;;;;;;;5044032;28;20381;-72
2021/07/17 02:04:39;;;;;;;;;;;;;;;;;;5039391;28;19926;-70
2021/07/17 02:07:06;;;;;;;;;;;;;;;;;;5046627;28;19935;-73
2021/07/17 02:09:33;;;;;;;;;;;;;;;;;;5046180;28;20452;-72
2021/07/17 02:12:00;;;;;;;;;;;;;;;;;;5047354;28;20338;-73
2021/07/17 02:14:26;;;;;;;;;;;;;;;;;;5043169;28;20381;-73
2021/07/17 02:16:53;;;;;;;;;;;;;;;;;;5046505;28;19925;-72
2021/07/17 02:19:20;;;;;;;;;;;;;;;;;;5045111;28;20313;-72
2021/07/17 02:21:47;;;;;;;;;;;;;;;;;;5041501;28;20343;-73
2021/07/17 02:24:14;;;;;;;;;;;;;;;;;;5044755;28;19924;-72
2021/07/17 02:26:41;;;;;;;;;;;;;;;;;;5044424;28;19925;-72
2021/07/17 02:29:08;;;;;;;;;;;;;;;;;;5042639;28;19933;-72
2021/07/17 02:31:36;;;;;;;;;;;;;;;;;;5042706;28;19929;-72
2021/07/17 02:34:03;;;;;;;;;;;;;;;;;;5039697;28;19933;-71
2021/07/17 02:36:30;;;;;;;;;;;;;;;;;;5038038;28;20294;-71
2021/07/17 02:38:57;;;;;;;;;;;;;;;;;;5047997;28;20308;-72
2021/07/17 02:41:24;;;;;;;;;;;;;;;;;;5047592;28;20322;-72
2021/07/17 02:43:51;;;;;;;;;;;;;;;;;;5043742;28;20305;-72
2021/07/17 02:46:18;;;;;;;;;;;;;;;;;;5050582;28;20301;-72
2021/07/17 02:48:44;;;;;;;;;;;;;;;;;;5043677;28;19925;-72
2021/07/17 02:51:12;;;;;;;;;;;;;;;;;;5045813;28;20386;-73
2021/07/17 02:53:39;;;;;;;;;;;;;;;;;;5048599;28;19925;-73
2021/07/17 02:56:06;;;;;;;;;;;;;;;;;;5041372;28;19982;-72
2021/07/17 02:58:33;;;;;;;;;;;;;;;;;;5038073;28;20019;-73
2021/07/17 03:01:00;;;;;;;;;;;;;;;;;;5045624;28;19924;-72
2021/07/17 03:03:27;;;;;;;;;;;;;;;;;;5044733;28;19932;-71
2021/07/17 03:05:53;;;;;;;;;;;;;;;;;;5040913;28;19925;-72
2021/07/17 03:08:22;;;;;;;;;;;;;;;;;;5046551;28;19931;-73
2021/07/17 03:10:49;;;;;;;;;;;;;;;;;;5039406;28;19932;-72
2021/07/17 03:13:16;;;;;;;;;;;;;;;;;;5044695;28;20007;-72
2021/07/17 03:15:43;;;;;;;;;;;;;;;;;;5044788;28;20016;-72
2021/07/17 03:18:10;;;;;;;;;;;;;;;;;;5044430;28;20024;-72
2021/07/17 03:20:37;;;;;;;;;;;;;;;;;;5040517;28;19968;-73
2021/07/17 03:23:04;;;;;;;;;;;;;;;;;;5042039;28;19943;-73
2021/07/17 03:25:30;;;;;;;;;;;;;;;;;;5041995;28;19947;-71
2021/07/17 03:27:57;;;;;;;;;;;;;;;;;;5047254;28;20280;-72
2021/07/17 03:30:24;;;;;;;;;;;;;;;;;;5040402;28;19925;-72
2021/07/17 03:32:51;;;;;;;;;;;;;;;;;;5045322;28;19925;-72
2021/07/17 03:35:18;;;;;;;;;;;;;;;;;;5043344;28;19925;-72
2021/07/17 03:37:45;;;;;;;;;;;;;;;;;;5088247;22;19932;-68
2021/07/17 03:40:12;;;;;;;;;;;;;;;;;;5086604;28;19935;-70
2021/07/17 03:42:39;;;;;;;;;;;;;;;;;;5090267;28;19982;-71
2021/07/17 03:45:06;;;;;;;;;;;;;;;;;;5091781;28;19924;-70
2021/07/17 03:47:33;;;;;;;;;;;;;;;;;;5101881;28;19934;-69
2021/07/17 03:50:00;;;;;;;;;;;;;;;;;;5104171;28;19930;-69
2021/07/17 03:52:27;;;;;;;;;;;;;;;;;;5099238;28;19924;-69
2021/07/17 03:54:54;;;;;;;;;;;;;;;;;;5101831;28;19931;-70
2021/07/17 03:57:21;;;;;;;;;;;;;;;;;;5104238;28;19924;-70
2021/07/17 03:59:48;;;;;;;;;;;;;;;;;;5096037;28;19924;-71
2021/07/17 04:02:15;;;;;;;;;;;;;;;;;;5100922;28;20074;-69
2021/07/17 04:04:43;;;;;;;;;;;;;;;;;;5102782;28;20034;-69
2021/07/17 04:07:10;;;;;;;;;;;;;;;;;;5103941;28;19952;-71
2021/07/17 04:09:37;;;;;;;;;;;;;;;;;;5100421;28;19944;-70
2021/07/17 04:12:04;;;;;;;;;;;;;;;;;;5103943;28;20294;-71
2021/07/17 04:14:30;;;;;;;;;;;;;;;;;;5098659;28;20406;-70
2021/07/17 04:16:57;;;;;;;;;;;;;;;;;;5094896;28;19930;-71
2021/07/17 04:19:24;;;;;;;;;;;;;;;;;;5105551;28;19934;-70
2021/07/17 04:21:51;;;;;;;;;;;;;;;;;;5109698;28;19932;-70
2021/07/17 04:24:18;;;;;;;;;;;;;;;;;;5111735;28;20579;-70
2021/07/17 04:26:45;;;;;;;;;;;;;;;;;;5105017;28;19947;-70
2021/07/17 04:29:13;;;;;;;;;;;;;;;;;;5108880;28;20000;-70
2021/07/17 04:31:40;;;;;;;;;;;;;;;;;;5111891;28;20379;-69
2021/07/17 04:34:07;;;;;;;;;;;;;;;;;;5107803;28;20298;-69
2021/07/17 04:36:34;;;;;;;;;;;;;;;;;;5112967;28;19924;-69
2021/07/17 04:39:01;;;;;;;;;;;;;;;;;;5107408;28;19924;-70
2021/07/17 04:41:28;;;;;;;;;;;;;;;;;;5099668;28;19931;-71
2021/07/17 04:43:55;;;;;;;;;;;;;;;;;;5105641;28;19939;-69
2021/07/17 04:46:22;;;;;;;;;;;;;;;;;;5105297;28;20368;-69
2021/07/17 04:48:49;;;;;;;;;;;;;;;;;;5105574;28;19925;-70
2021/07/17 04:51:16;;;;;;;;;;;;;;;;;;5113052;28;20000;-70
2021/07/17 04:53:42;;;;;;;;;;;;;;;;;;5114279;28;19927;-70
2021/07/17 04:56:09;;;;;;;;;;;;;;;;;;5111012;28;19954;-70
2021/07/17 04:58:36;;;;;;;;;;;;;;;;;;5110558;28;20019;-71
2021/07/17 05:01:03;;;;;;;;;;;;;;;;;;5109701;28;20308;-71
2021/07/17 05:03:30;;;;;;;;;;;;;;;;;;5113120;28;19954;-70
2021/07/17 05:05:57;;;;;;;;;;;;;;;;;;5110112;28;19924;-71
2021/07/17 05:08:24;;;;;;;;;;;;;;;;;;5118136;28;20383;-69
2021/07/17 05:10:51;;;;;;;;;;;;;;;;;;5104693;28;20026;-70
2021/07/17 05:13:19;;;;;;;;;;;;;;;;;;5112058;28;19924;-69
2021/07/17 05:15:46;;;;;;;;;;;;;;;;;;5110126;28;19931;-71
2021/07/17 05:18:13;;;;;;;;;;;;;;;;;;5112863;28;19932;-71
2021/07/17 05:20:40;;;;;;;;;;;;;;;;;;5110474;28;20359;-70
2021/07/17 05:23:07;;;;;;;;;;;;;;;;;;5105068;28;20030;-69
2021/07/17 05:25:34;;;;;;;;;;;;;;;;;;5108001;28;19924;-71
2021/07/17 05:28:01;;;;;;;;;;;;;;;;;;5108313;28;19924;-71
2021/07/17 05:30:27;;;;;;;;;;;;;;;;;;5111070;28;19930;-71
2021/07/17 05:32:54;;;;;;;;;;;;;;;;;;5109652;28;19924;-71
2021/07/17 05:35:21;;;;;;;;;;;;;;;;;;5107583;28;19932;-70
2021/07/17 05:37:48;;;;;;;;;;;;;;;;;;5102812;28;19924;-70
2021/07/17 05:40:15;;;;;;;;;;;;;;;;;;5106431;28;19924;-69
2021/07/17 05:42:43;;;;;;;;;;;;;;;;;;5104017;28;19985;-70
2021/07/17 05:45:10;;;;;;;;;;;;;;;;;;5101785;28;20341;-69
2021/07/17 05:47:37;;;;;;;;;;;;;;;;;;5101556;28;20386;-70
2021/07/17 05:50:04;;;;;;;;;;;;;;;;;;5109550;28;19932;-70
2021/07/17 05:52:31;;;;;;;;;;;;;;;;;;5108994;28;19928;-70
2021/07/17 05:54:58;;;;;;;;;;;;;;;;;;5110657;28;19943;-70
2021/07/17 05:57:25;;;;;;;;;;;;;;;;;;5110856;28;19947;-69
2021/07/17 05:59:52;;;;;;;;;;;;;;;;;;5099867;28;20379;-70
2021/07/17 06:02:19;;;;;;;;;;;;;;;;;;5102694;28;19924;-69
2021/07/17 06:04:46;;;;;;;;;;;;;;;;;;5107881;28;19931;-70
2021/07/17 06:07:13;;;;;;;;;;;;;;;;;;5104074;28;19924;-71
2021/07/17 06:09:41;;;;;;;;;;;;;;;;;;5114513;28;19930;-68
2021/07/17 06:12:08;;;;;;;;;;;;;;;;;;5114526;28;20455;-69
2021/07/17 06:14:35;;;;;;;;;;;;;;;;;;5110986;28;19924;-69
2021/07/17 06:17:01;;;;;;;;;;;;;;;;;;5102932;28;19924;-68
2021/07/17 06:19:28;;;;;;;;;;;;;;;;;;5098194;28;19932;-70
2021/07/17 06:21:55;;;;;;;;;;;;;;;;;;5105732;28;19923;-67
2021/07/17 06:24:22;;;;;;;;;;;;;;;;;;5105067;28;20027;-67
2021/07/17 06:26:49;;;;;;;;;;;;;;;;;;5105248;28;20565;-69
2021/07/17 06:29:16;;;;;;;;;;;;;;;;;;5107852;28;20356;-68
2021/07/17 06:31:43;;;;;;;;;;;;;;;;;;5100497;28;19924;-68
2021/07/17 06:34:10;;;;;;;;;;;;;;;;;;5102098;28;19928;-67
2021/07/17 06:36:37;;;;;;;;;;;;;;;;;;5106122;28;19931;-69
2021/07/17 06:39:04;;;;;;;;;;;;;;;;;;5106441;28;19928;-69
2021/07/17 06:41:31;;;;;;;;;;;;;;;;;;5101256;28;20302;-67
2021/07/17 06:43:58;;;;;;;;;;;;;;;;;;5100907;28;20391;-67
2021/07/17 06:46:25;;;;;;;;;;;;;;;;;;5104613;28;19924;-68
2021/07/17 06:48:52;;;;;;;;;;;;;;;;;;5099981;28;19935;-67
2021/07/17 06:51:18;;;;;;;;;;;;;;;;;;5110012;28;19923;-69
2021/07/17 06:53:45;;;;;;;;;;;;;;;;;;5113491;28;19927;-68
2021/07/17 06:56:15;;;;;;;;;;;;;;;;;;5115036;28;19924;-68
2021/07/17 06:58:42;;;;;;;;;;;;;;;;;;5103380;28;19959;-68
2021/07/17 07:01:09;;;;;;;;;;;;;;;;;;5102535;28;19924;-70
2021/07/17 07:03:36;;;;;;;;;;;;;;;;;;5107267;28;19924;-67
2021/07/17 07:06:03;;;;;;;;;;;;;;;;;;5104778;28;20470;-68
2021/07/17 07:08:30;;;;;;;;;;;;;;;;;;5098476;28;20359;-68
2021/07/17 07:10:57;;;;;;;;;;;;;;;;;;5106101;28;19932;-67
2021/07/17 07:13:23;;;;;;;;;;;;;;;;;;5102140;28;19924;-68
2021/07/17 07:15:50;;;;;;;;;;;;;;;;;;5096394;28;20296;-68
2021/07/17 07:18:17;;;;;;;;;;;;;;;;;;5107012;28;20376;-67
2021/07/17 07:20:44;;;;;;;;;;;;;;;;;;5098633;28;20337;-68
2021/07/17 07:23:12;;;;;;;;;;;;;;;;;;5103918;28;19930;-68
2021/07/17 07:25:39;;;;;;;;;;;;;;;;;;5098513;28;19927;-69
2021/07/17 07:28:06;;;;;;;;;;;;;;;;;;5097357;28;19924;-69
2021/07/17 07:30:33;;;;;;;;;;;;;;;;;;5105332;28;20021;-69
2021/07/17 07:33:00;;;;;;;;;;;;;;;;;;5099771;28;19938;-67
2021/07/17 07:35:27;;;;;;;;;;;;;;;;;;5101496;28;19924;-68
2021/07/17 07:37:54;;;;;;;;;;;;;;;;;;5110902;28;19924;-68
2021/07/17 07:40:21;;;;;;;;;;;;;;;;;;5108558;28;19928;-69
2021/07/17 07:42:48;;;;;;;;;;;;;;;;;;5104587;28;19931;-69
2021/07/17 07:45:15;;;;;;;;;;;;;;;;;;5100071;28;19924;-70
2021/07/17 07:47:42;;;;;;;;;;;;;;;;;;5104887;28;19924;-68
2021/07/17 07:50:09;;;;;;;;;;;;;;;;;;5109690;28;19928;-68
2021/07/17 07:52:35;;;;;;;;;;;;;;;;;;5108047;28;19950;-67
2021/07/17 07:55:02;;;;;;;;;;;;;;;;;;5105008;28;19924;-67
2021/07/17 07:57:29;;;;;;;;;;;;;;;;;;5097366;28;19924;-71
2021/07/17 07:59:56;;;;;;;;;;;;;;;;;;5107861;28;19931;-70
2021/07/17 08:02:26;;;;;;;;;;;;;;;;;;5100353;28;19924;-69
2021/07/17 08:04:53;;;;;;;;;;;;;;;;;;5102176;28;19924;-69
2021/07/17 08:07:20;;;;;;;;;;;;;;;;;;5102251;28;20345;-68
2021/07/17 08:09:47;;;;;;;;;;;;;;;;;;5100720;28;20007;-71
2021/07/17 08:12:14;;;;;;;;;;;;;;;;;;5093549;28;19954;-69
2021/07/17 08:14:41;;;;;;;;;;;;;;;;;;5105571;28;19924;-69
2021/07/17 08:17:10;;;;;;;;;;;;;;;;;;5098963;28;19924;-67
2021/07/17 08:19:36;;;;;;;;;;;;;;;;;;5102098;28;19928;-68
2021/07/17 08:22:03;;;;;;;;;;;;;;;;;;5109498;28;19936;-69
2021/07/17 08:24:30;;;;;;;;;;;;;;;;;;5106124;28;19987;-70
2021/07/17 08:26:57;;;;;;;;;;;;;;;;;;5103547;28;20157;-71
2021/07/17 08:29:24;;;;;;;;;;;;;;;;;;5101726;28;19930;-69
2021/07/17 08:31:51;;;;;;;;;;;;;;;;;;5097885;28;19932;-68
2021/07/17 08:34:18;;;;;;;;;;;;;;;;;;5104304;28;19931;-68
2021/07/17 08:36:45;;;;;;;;;;;;;;;;;;5102138;28;20311;-68
2021/07/17 08:39:12;;;;;;;;;;;;;;;;;;5102525;28;20384;-71
2021/07/17 08:41:41;;;;;;;;;;;;;;;;;;5103791;28;19963;-70
2021/07/17 08:44:08;;;;;;;;;;;;;;;;;;5102543;28;19989;-70
2021/07/17 08:46:35;;;;;;;;;;;;;;;;;;5112589;28;19932;-69
2021/07/17 08:49:02;;;;;;;;;;;;;;;;;;5106281;28;20376;-70
2021/07/17 08:51:29;;;;;;;;;;;;;;;;;;5116331;28;19934;-69
2021/07/17 08:53:58;;;;;;;;;;;;;;;;;;5114886;28;19924;-70
2021/07/17 08:56:25;;;;;;;;;;;;;;;;;;5111920;28;20380;-70
2021/07/17 08:58:52;;;;;;;;;;;;;;;;;;5110360;28;19992;-69
2021/07/17 09:01:19;;;;;;;;;;;;;;;;;;5110555;28;20018;-68
2021/07/17 09:03:46;;;;;;;;;;;;;;;;;;5108923;28;19943;-70
2021/07/17 09:06:13;;;;;;;;;;;;;;;;;;5110985;28;20500;-69
2021/07/17 09:08:40;;;;;;;;;;;;;;;;;;5116765;28;19924;-69
2021/07/17 09:11:07;;;;;;;;;;;;;;;;;;5105845;28;20017;-70
2021/07/17 09:13:34;;;;;;;;;;;;;;;;;;5112377;28;19931;-72
2021/07/17 09:16:01;;;;;;;;;;;;;;;;;;5104158;28;19931;-72
2021/07/17 09:18:28;;;;;;;;;;;;;;;;;;5110075;28;20023;-69
2021/07/17 09:20:55;;;;;;;;;;;;;;;;;;5106561;28;19928;-72
2021/07/17 09:23:22;;;;;;;;;;;;;;;;;;5109660;28;19935;-70
2021/07/17 09:25:49;;;;;;;;;;;;;;;;;;5108362;28;20017;-70
2021/07/17 09:28:16;;;;;;;;;;;;;;;;;;5108448;28;19928;-72
2021/07/17 09:30:43;;;;;;;;;;;;;;;;;;5113298;28;19923;-70
2021/07/17 09:33:10;;;;;;;;;;;;;;;;;;5106626;28;19923;-69
2021/07/17 09:35:37;;;;;;;;;;;;;;;;;;5107651;28;19970;-68
2021/07/17 09:38:04;;;;;;;;;;;;;;;;;;5093629;22;19925;-69
2021/07/17 09:40:31;;;;;;;;;;;;;;;;;;5074052;28;20509;-65
2021/07/17 09:42:58;;;;;;;;;;;;;;;;;;5068083;28;20155;-69
2021/07/17 09:45:25;;;;;;;;;;;;;;;;;;5071308;28;19998;-67
2021/07/17 09:47:52;;;;;;;;;;;;;;;;;;5065177;28;20771;-69
2021/07/17 09:50:19;;;;;;;;;;;;;;;;;;5056537;28;19925;-72
2021/07/17 09:52:46;;;;;;;;;;;;;;;;;;5062207;28;20350;-69
2021/07/17 09:55:14;;;;;;;;;;;;;;;;;;5065182;28;19967;-69
2021/07/17 09:57:41;;;;;;;;;;;;;;;;;;5059527;28;19925;-68
2021/07/17 10:00:08;;;;;;;;;;;;;;;;;;5057566;28;20019;-69
2021/07/17 10:02:36;;;;;;;;;;;;;;;;;;5059924;28;19929;-66
2021/07/17 10:05:03;;;;;;;;;;;;;;;;;;5062027;28;19933;-70
2021/07/17 10:07:30;;;;;;;;;;;;;;;;;;5057850;28;19989;-70
2021/07/17 10:09:57;;;;;;;;;;;;;;;;;;5063628;28;19925;-71
2021/07/17 10:12:24;;;;;;;;;;;;;;;;;;5061720;28;19931;-71
2021/07/17 10:14:51;;;;;;;;;;;;;;;;;;5059933;28;20344;-71
2021/07/17 10:17:18;;;;;;;;;;;;;;;;;;5066126;28;20007;-70
2021/07/17 10:19:45;;;;;;;;;;;;;;;;;;5061411;28;19924;-70
2021/07/17 10:22:12;;;;;;;;;;;;;;;;;;5061936;28;19971;-70
2021/07/17 10:24:39;;;;;;;;;;;;;;;;;;5063466;28;19925;-69
2021/07/17 10:27:06;;;;;;;;;;;;;;;;;;5061487;28;19982;-67
2021/07/17 10:29:33;;;;;;;;;;;;;;;;;;5065381;28;19928;-69
2021/07/17 10:32:00;;;;;;;;;;;;;;;;;;5062667;28;19979;-69
2021/07/17 10:34:27;;;;;;;;;;;;;;;;;;5061703;28;20004;-71
2021/07/17 10:36:54;;;;;;;;;;;;;;;;;;5062665;28;20023;-68
2021/07/17 10:39:21;;;;;;;;;;;;;;;;;;5065204;28;21192;-70
2021/07/17 10:41:48;;;;;;;;;;;;;;;;;;5061113;28;20396;-72
2021/07/17 10:44:15;;;;;;;;;;;;;;;;;;5063202;28;20016;-70
2021/07/17 10:46:42;;;;;;;;;;;;;;;;;;5061957;28;20369;-69
2021/07/17 10:49:09;;;;;;;;;;;;;;;;;;5064992;28;19967;-72
2021/07/17 10:51:36;;;;;;;;;;;;;;;;;;5064595;28;20023;-71
2021/07/17 10:54:03;;;;;;;;;;;;;;;;;;5062731;28;19925;-70
2021/07/17 10:56:31;;;;;;;;;;;;;;;;;;5064138;28;19986;-72
2021/07/17 10:58:58;;;;;;;;;;;;;;;;;;5061094;28;19928;-70
2021/07/17 11:01:25;;;;;;;;;;;;;;;;;;5060631;28;19925;-69
2021/07/17 11:03:52;;;;;;;;;;;;;;;;;;5060035;28;20384;-70
2021/07/17 11:06:19;;;;;;;;;;;;;;;;;;5064104;28;20011;-72
2021/07/17 11:08:46;;;;;;;;;;;;;;;;;;5062368;28;20070;-70
2021/07/17 11:11:13;;;;;;;;;;;;;;;;;;5063147;28;20039;-71
2021/07/17 11:13:40;;;;;;;;;;;;;;;;;;5062913;28;19933;-70
2021/07/17 11:16:07;;;;;;;;;;;;;;;;;;5058190;28;19940;-70
2021/07/17 11:18:34;;;;;;;;;;;;;;;;;;5061923;28;19937;-69
2021/07/17 11:21:01;;;;;;;;;;;;;;;;;;5059908;28;20403;-69
2021/07/17 11:23:28;;;;;;;;;;;;;;;;;;5063059;28;19928;-68
2021/07/17 11:25:55;;;;;;;;;;;;;;;;;;5063267;28;20011;-68
2021/07/17 11:28:22;;;;;;;;;;;;;;;;;;5063665;28;20004;-69
2021/07/17 11:30:49;;;;;;;;;;;;;;;;;;5061966;28;19931;-71
2021/07/17 11:33:16;;;;;;;;;;;;;;;;;;5064227;28;20305;-69
2021/07/17 11:35:44;;;;;;;;;;;;;;;;;;5064965;28;19924;-69
2021/07/17 11:38:12;;;;;;;;;;;;;;;;;;5064561;28;20007;-68
2021/07/17 11:40:39;;;;;;;;;;;;;;;;;;5058474;28;19925;-68
2021/07/17 11:43:06;;;;;;;;;;;;;;;;;;5058292;28;20016;-67
2021/07/17 11:45:33;;;;;;;;;;;;;;;;;;5060054;28;19929;-66
2021/07/17 11:48:00;;;;;;;;;;;;;;;;;;5060901;28;19924;-66
2021/07/17 11:50:27;;;;;;;;;;;;;;;;;;5061189;28;19931;-66
2021/07/17 11:52:54;;;;;;;;;;;;;;;;;;5059411;28;19928;-66
2021/07/17 11:55:21;;;;;;;;;;;;;;;;;;5059425;28;20315;-65
2021/07/17 11:57:49;;;;;;;;;;;;;;;;;;5062787;28;19960;-64
2021/07/17 12:00:17;;;;;;;;;;;;;;;;;;5062034;28;20222;-67
2021/07/17 12:02:44;;;;;;;;;;;;;;;;;;5062310;28;19931;-66
2021/07/17 12:05:11;;;;;;;;;;;;;;;;;;5064521;28;19931;-65
2021/07/17 12:07:38;;;;;;;;;;;;;;;;;;5060867;28;19929;-66
2021/07/17 12:10:05;;;;;;;;;;;;;;;;;;5064125;28;20427;-65
2021/07/17 12:12:32;;;;;;;;;;;;;;;;;;5063269;28;19929;-66
2021/07/17 12:14:59;;;;;;;;;;;;;;;;;;5066775;28;19925;-64
2021/07/17 12:17:26;;;;;;;;;;;;;;;;;;5062796;28;20385;-66
2021/07/17 12:19:53;;;;;;;;;;;;;;;;;;5062828;28;19925;-67
2021/07/17 12:22:20;;;;;;;;;;;;;;;;;;5063817;28;21124;-67
2021/07/17 12:24:47;;;;;;;;;;;;;;;;;;5064767;28;19928;-66
2021/07/17 12:27:14;;;;;;;;;;;;;;;;;;5067137;28;19924;-66
2021/07/17 12:29:41;;;;;;;;;;;;;;;;;;5064679;28;19929;-68
2021/07/17 12:32:08;;;;;;;;;;;;;;;;;;5061565;28;20295;-66
2021/07/17 12:34:35;;;;;;;;;;;;;;;;;;5056956;28;19943;-67
2021/07/17 12:37:02;;;;;;;;;;;;;;;;;;5064308;28;20712;-65
2021/07/17 12:39:29;;;;;;;;;;;;;;;;;;5065087;28;20035;-66
2021/07/17 12:41:56;;;;;;;;;;;;;;;;;;5065889;28;19928;-66
2021/07/17 12:44:23;;;;;;;;;;;;;;;;;;5066921;28;19985;-68
2021/07/17 12:46:52;;;;;;;;;;;;;;;;;;5064705;28;20312;-67
2021/07/17 12:49:19;;;;;;;;;;;;;;;;;;5066149;28;19928;-66
2021/07/17 12:51:46;;;;;;;;;;;;;;;;;;5062646;28;20464;-67
2021/07/17 12:54:13;;;;;;;;;;;;;;;;;;5062574;28;20019;-67
2021/07/17 12:56:41;;;;;;;;;;;;;;;;;;5063769;28;19925;-64
2021/07/17 12:59:08;;;;;;;;;;;;;;;;;;5065091;28;19986;-67
2021/07/17 13:01:35;;;;;;;;;;;;;;;;;;5064341;28;20274;-66
2021/07/17 13:04:02;;;;;;;;;;;;;;;;;;5063622;28;19925;-67
2021/07/17 13:06:29;;;;;;;;;;;;;;;;;;5062196;28;19928;-66
2021/07/17 13:08:56;;;;;;;;;;;;;;;;;;5064329;28;19924;-66
2021/07/17 13:11:25;;;;;;;;;;;;;;;;;;5066144;28;19925;-66
2021/07/17 13:13:52;;;;;;;;;;;;;;;;;;5060965;28;19929;-68
2021/07/17 13:16:19;;;;;;;;;;;;;;;;;;5065254;28;19940;-66
2021/07/17 13:18:46;;;;;;;;;;;;;;;;;;5063187;28;20388;-66
2021/07/17 13:21:14;;;;;;;;;;;;;;;;;;5062631;28;19930;-70
2021/07/17 13:23:41;;;;;;;;;;;;;;;;;;5064881;28;19933;-66
2021/07/17 13:26:08;;;;;;;;;;;;;;;;;;5062557;28;20050;-66
2021/07/17 13:28:36;;;;;;;;;;;;;;;;;;5061315;28;20311;-67
2021/07/17 13:31:03;;;;;;;;;;;;;;;;;;5059743;28;19929;-67
2021/07/17 13:33:30;;;;;;;;;;;;;;;;;;5062242;28;19930;-65
2021/07/17 13:35:57;;;;;;;;;;;;;;;;;;5056730;28;20304;-64
2021/07/17 13:38:24;;;;;;;;;;;;;;;;;;5063889;28;19924;-66
2021/07/17 13:40:53;;;;;;;;;;;;;;;;;;5064645;28;19935;-66
2021/07/17 13:43:21;;;;;;;;;;;;;;;;;;5063126;28;20004;-65
2021/07/17 13:45:48;;;;;;;;;;;;;;;;;;5062049;28;20032;-66
2021/07/17 13:48:15;;;;;;;;;;;;;;;;;;5060753;28;19925;-67
2021/07/17 13:50:42;;;;;;;;;;;;;;;;;;5059696;28;19928;-65
2021/07/17 13:53:10;;;;;;;;;;;;;;;;;;5057054;28;19947;-68
2021/07/17 13:55:37;;;;;;;;;;;;;;;;;;5061238;28;20367;-67
2021/07/17 13:58:05;;;;;;;;;;;;;;;;;;5059061;28;19925;-65
2021/07/17 14:00:32;;;;;;;;;;;;;;;;;;5055503;28;20023;-65
2021/07/17 14:02:59;;;;;;;;;;;;;;;;;;5058016;28;20660;-66
2021/07/17 14:05:26;;;;;;;;;;;;;;;;;;5059614;28;19925;-66
2021/07/17 14:07:53;;;;;;;;;;;;;;;;;;5052810;28;19925;-68
2021/07/17 14:10:20;;;;;;;;;;;;;;;;;;5057106;28;19925;-68
2021/07/17 14:12:47;;;;;;;;;;;;;;;;;;5059108;28;20407;-66
2021/07/17 14:15:14;;;;;;;;;;;;;;;;;;5054145;28;19932;-64
2021/07/17 14:17:41;;;;;;;;;;;;;;;;;;5054058;28;19924;-67
2021/07/17 14:20:08;;;;;;;;;;;;;;;;;;5056401;28;19925;-67
2021/07/17 14:22:35;;;;;;;;;;;;;;;;;;5059172;28;20380;-66
2021/07/17 14:25:02;;;;;;;;;;;;;;;;;;5059657;28;19938;-68
2021/07/17 14:27:29;;;;;;;;;;;;;;;;;;5058198;28;19925;-68
2021/07/17 14:29:56;;;;;;;;;;;;;;;;;;5055825;28;19924;-68
2021/07/17 14:32:23;;;;;;;;;;;;;;;;;;5053679;28;20014;-68
2021/07/17 14:34:50;;;;;;;;;;;;;;;;;;5057535;28;19925;-66
2021/07/17 14:37:17;;;;;;;;;;;;;;;;;;5055884;28;19928;-65
2021/07/17 14:39:44;;;;;;;;;;;;;;;;;;5054935;28;20317;-67
2021/07/17 14:42:11;;;;;;;;;;;;;;;;;;5058615;28;19925;-66
2021/07/17 14:44:39;;;;;;;;;;;;;;;;;;5061400;28;19928;-66
2021/07/17 14:47:06;;;;;;;;;;;;;;;;;;5058478;28;19932;-66
2021/07/17 14:49:33;;;;;;;;;;;;;;;;;;5063425;28;19968;-68
2021/07/17 14:52:00;;;;;;;;;;;;;;;;;;5062954;28;19924;-68
2021/07/17 14:54:27;;;;;;;;;;;;;;;;;;5063286;28;19929;-66
2021/07/17 14:56:54;;;;;;;;;;;;;;;;;;5055325;28;20409;-66
2021/07/17 14:59:21;;;;;;;;;;;;;;;;;;5060296;28;19987;-70
2021/07/17 15:01:50;;;;;;;;;;;;;;;;;;5057580;28;20420;-66
2021/07/17 15:04:17;;;;;;;;;;;;;;;;;;5056131;28;20462;-67
2021/07/17 15:06:44;;;;;;;;;;;;;;;;;;5054808;28;19932;-67
2021/07/17 15:09:12;;;;;;;;;;;;;;;;;;5060018;28;19932;-68
2021/07/17 15:11:40;;;;;;;;;;;;;;;;;;5054461;28;19947;-67
2021/07/17 15:14:07;;;;;;;;;;;;;;;;;;5051013;28;19933;-67
2021/07/17 15:16:34;;;;;;;;;;;;;;;;;;5051270;28;19924;-67
2021/07/17 15:19:01;;;;;;;;;;;;;;;;;;5054512;28;20028;-67
2021/07/17 15:21:29;;;;;;;;;;;;;;;;;;5058094;28;19956;-67
2021/07/17 15:23:56;;;;;;;;;;;;;;;;;;5056406;28;19976;-68
2021/07/17 15:26:23;;;;;;;;;;;;;;;;;;5057488;28;19988;-67
2021/07/17 15:28:50;;;;;;;;;;;;;;;;;;5065084;28;19928;-71
2021/07/17 15:31:17;;;;;;;;;;;;;;;;;;5065127;28;20476;-72
2021/07/17 15:33:44;;;;;;;;;;;;;;;;;;5056802;28;19935;-70
2021/07/17 15:36:11;;;;;;;;;;;;;;;;;;5060617;28;19932;-71
2021/07/17 15:38:38;;;;;;;;;;;;;;;;;;5068333;28;20419;-71
2021/07/17 15:41:05;;;;;;;;;;;;;;;;;;5059865;28;20402;-71
2021/07/17 15:43:32;;;;;;;;;;;;;;;;;;5059990;28;19925;-70
2021/07/17 15:45:59;;;;;;;;;;;;;;;;;;5056000;28;20442;-71
2021/07/17 15:48:26;;;;;;;;;;;;;;;;;;5051607;28;19925;-70
2021/07/17 15:50:53;;;;;;;;;;;;;;;;;;5054716;28;19935;-71
2021/07/17 15:53:20;;;;;;;;;;;;;;;;;;5052775;28;20436;-69
2021/07/17 15:55:47;;;;;;;;;;;;;;;;;;5057167;28;19933;-71
2021/07/17 15:58:14;;;;;;;;;;;;;;;;;;5054989;28;19931;-70
2021/07/17 16:00:41;;;;;;;;;;;;;;;;;;5050507;28;19925;-69
2021/07/17 16:03:08;;;;;;;;;;;;;;;;;;5056689;28;19925;-71
2021/07/17 16:05:35;;;;;;;;;;;;;;;;;;5055513;28;19924;-70
2021/07/17 16:08:03;;;;;;;;;;;;;;;;;;5057183;28;20404;-70
2021/07/17 16:10:30;;;;;;;;;;;;;;;;;;5050733;28;20317;-69
2021/07/17 16:12:57;;;;;;;;;;;;;;;;;;5052426;28;19936;-70
2021/07/17 16:15:24;;;;;;;;;;;;;;;;;;5051528;28;19935;-70
2021/07/17 16:17:51;;;;;;;;;;;;;;;;;;5058887;28;19932;-70
2021/07/17 16:20:18;;;;;;;;;;;;;;;;;;5059619;28;19928;-70
2021/07/17 16:22:45;;;;;;;;;;;;;;;;;;5051567;28;19939;-71
2021/07/17 16:25:12;;;;;;;;;;;;;;;;;;5053363;28;20312;-70
2021/07/17 16:27:41;;;;;;;;;;;;;;;;;;5051491;28;19928;-70
2021/07/17 16:30:08;;;;;;;;;;;;;;;;;;5054620;28;19925;-70
2021/07/17 16:32:35;;;;;;;;;;;;;;;;;;5053151;28;19929;-70
2021/07/17 16:35:03;;;;;;;;;;;;;;;;;;5053050;28;20404;-70
2021/07/17 16:37:30;;;;;;;;;;;;;;;;;;5053085;28;19924;-70
2021/07/17 16:39:57;;;;;;;;;;;;;;;;;;5057061;28;20414;-70
2021/07/17 16:42:24;;;;;;;;;;;;;;;;;;5052740;28;20439;-70
2021/07/17 16:44:51;;;;;;;;;;;;;;;;;;5056830;28;19932;-70